Time;durP1;ratioP1;P1;durP2;ratioP2;P2;SDS_P1;SDS_P2;PMS_P1;PMS_P2;Temp;Humidity;BMP_temperature;BMP_pressure;BME280_temperature;BME280_humidity;BME280_pressure;Samples;Min_cycle;Max_cycle;Signal;HPM_P1;HPM_P2
2021/08/04 00:00:31;;;;;;;;;6.00;6.00;;;;;17.04;56.29;101083.66;4838459;29;45468;-88
2021/08/04 00:02:57;;;;;;;;;9.25;9.25;;;;;17.03;56.45;101092.47;4832412;29;46087;-88
2021/08/04 00:05:22;;;;;;;;;7.75;7.75;;;;;17.00;56.46;101098.72;4838536;29;45378;-88
2021/08/04 00:07:48;;;;;;;;;7.25;7.25;;;;;16.98;56.48;101100.56;4824794;29;45551;-88
2021/08/04 00:10:14;;;;;;;;;9.00;8.00;;;;;16.98;56.76;101099.75;4824833;29;45362;-88
2021/08/04 00:12:39;;;;;;;;;9.25;8.00;;;;;16.94;56.43;101092.00;4825830;29;45606;-88
2021/08/04 00:15:06;;;;;;;;;9.25;8.00;;;;;16.94;56.20;101097.28;4842895;29;45381;-87
2021/08/04 00:17:31;;;;;;;;;7.75;7.75;;;;;16.93;56.78;101095.59;4845348;29;45369;-88
2021/08/04 00:19:57;;;;;;;;;10.50;8.00;;;;;16.95;57.14;101101.59;4845412;29;45247;-88
2021/08/04 00:22:22;;;;;;;;;7.75;7.25;;;;;16.95;56.50;101103.41;4860152;29;46557;-87
2021/08/04 00:24:48;;;;;;;;;8.25;7.00;;;;;16.93;56.91;101094.72;4834165;29;45458;-88
2021/08/04 00:27:13;;;;;;;;;8.75;7.25;;;;;16.94;56.94;101104.34;4829168;29;45359;-88
2021/08/04 00:29:39;;;;;;;;;6.25;6.00;;;;;16.94;56.88;101099.91;4827822;29;45408;-88
2021/08/04 00:32:05;;;;;;;;;8.50;7.75;;;;;16.94;56.74;101099.91;4827146;29;46186;-88
2021/08/04 00:34:30;;;;;;;;;8.25;6.25;;;;;16.93;56.52;101090.31;4841332;29;45832;-87
2021/08/04 00:36:55;;;;;;;;;7.50;7.25;;;;;16.90;57.08;101084.41;4841315;29;45558;-88
2021/08/04 00:39:21;;;;;;;;;10.50;6.75;;;;;16.93;57.16;101090.31;4828590;29;45400;-88
2021/08/04 00:41:46;;;;;;;;;8.00;7.50;;;;;16.90;56.76;101093.13;4845690;29;46095;-86
2021/08/04 00:44:12;;;;;;;;;8.25;7.50;;;;;16.88;56.76;101081.84;4857781;29;45729;-87
2021/08/04 00:46:40;;;;;;;;;7.25;7.00;;;;;16.87;57.10;101080.16;4841906;29;45510;-88
2021/08/04 00:49:05;;;;;;;;;8.00;8.00;;;;;16.88;56.84;101087.13;4841178;29;45398;-88
2021/08/04 00:51:31;;;;;;;;;7.25;7.25;;;;;16.83;57.12;101079.50;4837355;29;46575;-88
2021/08/04 00:53:56;;;;;;;;;8.00;8.00;;;;;16.81;57.36;101081.34;4840639;29;45333;-88
2021/08/04 00:56:21;;;;;;;;;8.00;8.00;;;;;16.79;57.73;101080.59;4841792;29;45526;-88
2021/08/04 00:58:47;;;;;;;;;4.75;4.75;;;;;16.76;57.25;101077.31;4845858;29;45355;-88
2021/08/04 01:01:20;;;;;;;;;7.25;6.25;;;;;16.73;57.25;101080.97;4844873;29;45436;-88
2021/08/04 01:03:50;;;;;;;;;9.75;8.25;;;;;16.70;57.52;101074.09;4837334;29;45220;-88
2021/08/04 01:06:34;;;;;;;;;8.75;8.25;;;;;16.70;57.70;101071.47;4830002;29;45553;-88
2021/08/04 01:09:00;;;;;;;;;7.25;7.25;;;;;16.66;57.58;101063.84;4827270;29;45287;-88
2021/08/04 01:11:31;;;;;;;;;9.00;7.25;;;;;16.62;57.68;101065.78;4830489;29;45340;-87
2021/08/04 01:13:59;;;;;;;;;9.00;6.00;;;;;16.63;57.64;101067.50;4828613;29;45405;-88
2021/08/04 01:16:28;;;;;;;;;8.67;7.33;;;;;16.60;57.96;101061.53;4842204;29;45285;-88
2021/08/04 01:19:02;;;;;;;;;7.67;7.67;;;;;16.59;57.89;101054.59;4841730;29;45419;-87
2021/08/04 01:21:48;;;;;;;;;6.75;6.50;;;;;16.59;58.17;101062.47;4850056;29;47235;-88
2021/08/04 01:24:26;;;;;;;;;7.00;7.00;;;;;16.56;58.17;101063.50;4844342;29;45449;-88
2021/08/04 01:26:53;;;;;;;;;9.00;9.00;;;;;16.56;58.03;101072.25;4859495;29;45259;-88
2021/08/04 01:29:22;;;;;;;;;6.50;6.50;;;;;16.51;58.07;101058.50;4829481;29;45306;-88
2021/08/04 01:31:49;;;;;;;;;8.25;8.25;;;;;16.51;58.09;101066.41;4827401;29;45525;-88
2021/08/04 01:34:18;;;;;;;;;8.25;8.25;;;;;16.47;57.91;101057.00;4826259;29;45340;-88
2021/08/04 01:36:44;;;;;;;;;8.50;7.50;;;;;16.45;58.14;101058.00;4827056;29;45333;-88
2021/08/04 01:39:12;;;;;;;;;10.00;8.00;;;;;16.41;58.03;101057.34;4826853;29;45258;-88
2021/08/04 01:41:41;;;;;;;;;7.00;7.00;;;;;16.40;57.89;101045.97;4826521;29;45513;-88
2021/08/04 01:44:07;;;;;;;;;12.00;8.67;;;;;16.36;58.40;101049.72;4826377;29;45386;-88
2021/08/04 01:46:34;;;;;;;;;7.67;5.00;;;;;16.39;58.50;101057.41;4825200;29;45234;-88
2021/08/04 01:49:02;;;;;;;;;7.75;7.00;;;;;16.34;58.34;101050.72;4835846;29;45467;-88
2021/08/04 01:51:28;;;;;;;;;9.25;7.00;;;;;16.32;58.58;101056.06;4844678;29;46100;-89
2021/08/04 01:53:54;;;;;;;;;5.00;5.00;;;;;16.28;58.55;101049.28;4842722;29;45361;-88
2021/08/04 01:56:20;;;;;;;;;10.25;10.00;;;;;16.25;58.31;101049.47;4843128;29;45397;-88
2021/08/04 01:58:45;;;;;;;;;7.25;7.25;;;;;16.22;58.54;101047.84;4839542;29;45367;-88
2021/08/04 02:01:11;;;;;;;;;6.75;6.25;;;;;16.21;58.48;101040.06;4838671;29;47667;-88
2021/08/04 02:03:37;;;;;;;;;9.75;7.00;;;;;16.21;58.66;101040.06;4826175;29;45371;-88
2021/08/04 02:06:11;;;;;;;;;5.75;5.75;;;;;16.16;58.57;101030.66;4826120;29;45330;-88
2021/08/04 02:09:05;;;;;;;;;8.75;8.50;;;;;16.19;58.64;101037.50;4826608;29;45417;-87
2021/08/04 02:11:42;;;;;;;;;11.25;8.50;;;;;16.15;58.69;101034.22;4831372;29;45410;-88
2021/08/04 02:14:17;;;;;;;;;8.50;8.25;;;;;16.11;58.64;101034.47;4825780;29;45589;-88
2021/08/04 02:16:51;;;;;;;;;9.25;7.50;;;;;16.08;58.73;101043.34;4826264;29;45410;-88
2021/08/04 02:19:22;;;;;;;;;11.00;8.00;;;;;16.06;59.22;101033.88;4824595;29;45454;-88
2021/08/04 02:21:54;;;;;;;;;9.00;8.75;;;;;15.97;59.20;101036.06;4832425;29;46264;-88
2021/08/04 02:24:23;;;;;;;;;9.00;7.75;;;;;15.98;59.10;101039.53;4834040;29;45347;-88
2021/08/04 02:26:52;;;;;;;;;10.00;7.00;;;;;15.96;59.12;101042.22;4829978;29;45427;-88
2021/08/04 02:29:20;;;;;;;;;11.00;9.00;;;;;15.91;59.37;101028.47;4826270;29;45297;-87
2021/08/04 02:31:46;;;;;;;;;7.75;6.00;;;;;15.94;59.23;101038.00;4829396;29;45435;-88
2021/08/04 02:34:15;;;;;;;;;9.00;8.00;;;;;15.93;59.42;101037.16;4858084;29;45491;-88
2021/08/04 02:36:40;;;;;;;;;9.75;7.50;;;;;15.88;59.29;101034.75;4840659;29;45347;-88
2021/08/04 02:39:06;;;;;;;;;7.75;7.75;;;;;15.88;59.34;101024.25;4831106;29;45434;-88
2021/08/04 02:41:32;;;;;;;;;8.00;7.25;;;;;15.87;59.20;101012.06;4825557;29;45411;-88
2021/08/04 02:43:58;;;;;;;;;9.25;9.00;;;;;15.86;59.48;101018.25;4826457;29;45325;-88
2021/08/04 02:46:23;;;;;;;;;10.00;8.50;;;;;15.84;59.50;101019.25;4825492;29;45332;-88
2021/08/04 02:48:48;;;;;;;;;9.25;8.25;;;;;15.84;59.41;101019.25;4826242;29;44778;-88
2021/08/04 02:51:18;;;;;;;;;11.25;8.00;;;;;15.83;59.42;101018.41;4848353;29;47946;-88
2021/08/04 02:53:44;;;;;;;;;8.75;8.00;;;;;15.80;59.30;101020.34;4831713;29;45824;-89
2021/08/04 02:56:09;;;;;;;;;9.75;7.75;;;;;15.77;59.54;101011.72;4830465;29;45390;-88
2021/08/04 02:58:38;;;;;;;;;8.25;8.25;;;;;15.77;59.37;101010.84;4825627;29;45449;-88
2021/08/04 03:01:06;;;;;;;;;9.25;7.50;;;;;15.77;59.32;101013.47;4832522;29;45379;-88
2021/08/04 03:03:32;;;;;;;;;9.00;6.00;;;;;15.74;59.59;101009.25;4840476;29;45662;-88
2021/08/04 03:05:57;;;;;;;;;8.50;7.50;;;;;15.72;59.90;101011.09;4825514;29;45373;-88
2021/08/04 03:08:22;;;;;;;;;8.50;7.00;;;;;15.71;59.34;101011.19;4839739;29;45503;-88
2021/08/04 03:10:48;;;;;;;;;8.00;8.00;;;;;15.66;59.54;101014.06;4838847;29;46704;-87
2021/08/04 03:13:14;;;;;;;;;8.00;6.25;;;;;15.65;59.78;101015.00;4839739;29;45438;-88
2021/08/04 03:15:39;;;;;;;;;7.75;6.25;;;;;15.61;59.91;101014.28;4827390;29;45590;-88
2021/08/04 03:18:05;;;;;;;;;9.50;6.50;;;;;15.61;59.70;101018.69;4843960;29;45299;-89
2021/08/04 03:20:30;;;;;;;;;5.50;5.50;;;;;15.62;59.83;101028.25;4842005;29;47426;-88
2021/08/04 03:22:55;;;;;;;;;7.50;6.50;;;;;15.61;59.65;101023.94;4843672;29;45271;-87
2021/08/04 03:25:21;;;;;;;;;9.25;7.25;;;;;15.58;59.58;101013.59;4841501;29;45430;-88
2021/08/04 03:27:46;;;;;;;;;7.00;7.00;;;;;15.54;59.79;101012.91;4843106;29;45313;-88
2021/08/04 03:30:13;;;;;;;;;9.50;6.50;;;;;15.51;60.07;101015.72;4841741;29;48329;-88
2021/08/04 03:32:39;;;;;;;;;7.25;7.25;;;;;15.47;59.87;101004.53;4843765;29;45332;-88
2021/08/04 03:35:06;;;;;;;;;8.75;7.00;;;;;15.50;59.86;101008.75;4842999;29;45224;-88
2021/08/04 03:37:32;;;;;;;;;7.00;7.00;;;;;15.43;59.96;101003.00;4829632;29;46312;-88
2021/08/04 03:39:57;;;;;;;;;5.50;5.50;;;;;15.41;59.74;101002.22;4842513;29;45385;-87
2021/08/04 03:42:23;;;;;;;;;7.75;6.75;;;;;15.39;59.94;100988.34;4843286;29;45381;-86
2021/08/04 03:44:48;;;;;;;;;7.25;6.50;;;;;15.40;59.85;100991.81;4843364;29;45389;-87
2021/08/04 03:47:13;;;;;;;;;9.50;8.50;;;;;15.36;59.88;100996.38;4835550;29;44844;-88
2021/08/04 03:49:39;;;;;;;;;9.00;7.00;;;;;15.33;59.71;100989.50;4841273;29;47077;-88
2021/08/04 03:52:05;;;;;;;;;8.25;7.00;;;;;15.34;60.02;100999.09;4845122;29;45335;-88
2021/08/04 03:54:30;;;;;;;;;7.50;7.00;;;;;15.32;59.75;100990.44;4860904;29;45532;-87
2021/08/04 03:56:55;;;;;;;;;7.50;7.50;;;;;15.31;59.79;100995.75;4834224;29;45465;-88
2021/08/04 03:59:21;;;;;;;;;8.25;6.25;;;;;15.26;59.99;100997.78;4845044;29;47292;-88
2021/08/04 04:01:46;;;;;;;;;7.00;6.00;;;;;15.23;60.01;100993.56;4843743;29;45701;-89
2021/08/04 04:04:12;;;;;;;;;6.25;6.00;;;;;15.20;60.28;101002.44;4829359;29;45394;-88
2021/08/04 04:06:37;;;;;;;;;11.00;7.00;;;;;15.21;60.21;101004.13;4846633;29;45556;-88
2021/08/04 04:09:02;;;;;;;;;9.50;8.00;;;;;15.22;60.11;101008.44;4832562;29;46173;-88
2021/08/04 04:11:29;;;;;;;;;8.75;8.00;;;;;15.17;60.29;101007.81;4842102;29;45319;-89
2021/08/04 04:13:54;;;;;;;;;7.75;6.00;;;;;15.18;60.21;101003.44;4826493;29;45477;-88
2021/08/04 04:16:21;;;;;;;;;7.75;6.75;;;;;15.16;60.42;101010.50;4837240;29;45260;-88
2021/08/04 04:18:47;;;;;;;;;6.75;6.75;;;;;15.13;60.01;101008.88;4840390;29;46136;-89
2021/08/04 04:21:12;;;;;;;;;8.00;6.00;;;;;15.15;60.55;101008.81;4832816;29;45889;-88
2021/08/04 04:23:37;;;;;;;;;9.75;7.00;;;;;15.12;60.28;101006.34;4846467;29;45777;-88
2021/08/04 04:26:03;;;;;;;;;6.00;6.00;;;;;15.06;60.40;100995.28;4860648;29;45535;-88
2021/08/04 04:28:29;;;;;;;;;8.25;6.50;;;;;15.06;60.14;101003.13;4844136;29;47560;-88
2021/08/04 04:30:54;;;;;;;;;6.25;6.25;;;;;15.05;60.11;100997.97;4840139;29;45792;-88
2021/08/04 04:33:20;;;;;;;;;8.50;7.50;;;;;15.02;60.36;100996.34;4846104;29;45299;-88
2021/08/04 04:35:45;;;;;;;;;8.25;6.75;;;;;15.03;60.72;100992.78;4846296;29;45285;-88
2021/08/04 04:38:11;;;;;;;;;7.25;6.50;;;;;15.00;60.56;100990.31;4858739;29;48220;-89
2021/08/04 04:40:36;;;;;;;;;7.25;7.25;;;;;14.99;60.19;100986.00;4836441;29;45883;-88
2021/08/04 04:43:01;;;;;;;;;11.75;8.75;;;;;15.01;60.69;100999.03;4841985;29;44792;-88
2021/08/04 04:45:27;;;;;;;;;7.00;7.00;;;;;15.00;60.74;100999.97;4842266;29;45368;-89
2021/08/04 04:47:52;;;;;;;;;7.25;6.75;;;;;14.94;60.64;100991.50;4827030;29;47128;-88
2021/08/04 04:50:17;;;;;;;;;6.50;6.50;;;;;14.96;60.93;100994.03;4828401;29;45563;-88
2021/08/04 04:52:43;;;;;;;;;10.25;8.00;;;;;14.93;60.78;100987.19;4828098;29;45388;-88
2021/08/04 04:55:10;;;;;;;;;9.00;9.00;;;;;14.92;60.98;100989.88;4832420;29;44812;-88
2021/08/04 04:57:35;;;;;;;;;6.75;6.75;;;;;14.92;61.03;100998.59;4830503;29;46456;-88
2021/08/04 05:00:01;;;;;;;;;9.00;7.00;;;;;14.93;61.11;100999.41;4828700;29;45433;-88
2021/08/04 05:02:26;;;;;;;;;7.00;5.75;;;;;14.92;61.33;101001.22;4842149;29;45430;-87
2021/08/04 05:04:54;;;;;;;;;7.00;7.00;;;;;14.95;61.10;100994.97;4825702;29;45559;-88
2021/08/04 05:07:19;;;;;;;;;9.25;7.25;;;;;14.97;60.98;101000.97;4826830;29;45502;-88
2021/08/04 05:09:45;;;;;;;;;7.25;7.25;;;;;14.97;61.31;101000.97;4827031;29;45431;-88
2021/08/04 05:12:10;;;;;;;;;8.00;7.75;;;;;15.01;61.26;101009.53;4831404;29;45500;-88
2021/08/04 05:14:40;;;;;;;;;6.75;6.75;;;;;15.00;61.20;101010.44;4828209;29;45311;-88
2021/08/04 05:17:05;;;;;;;;;6.25;6.25;;;;;15.00;61.11;101010.44;4842672;29;45430;-88
2021/08/04 05:19:31;;;;;;;;;6.75;6.75;;;;;15.04;61.13;101012.84;4844634;29;45414;-88
2021/08/04 05:21:56;;;;;;;;;7.75;7.25;;;;;15.06;61.29;101015.38;4859471;29;45454;-88
2021/08/04 05:24:21;;;;;;;;;9.75;7.25;;;;;15.08;60.89;101013.50;4846496;29;45540;-88
2021/08/04 05:26:47;;;;;;;;;10.25;7.50;;;;;15.10;61.39;101014.31;4844422;29;47042;-87
2021/08/04 05:29:12;;;;;;;;;8.25;8.25;;;;;15.16;61.32;101013.13;4845253;29;45369;-88
2021/08/04 05:31:38;;;;;;;;;7.50;7.50;;;;;15.13;61.01;101019.38;4845368;29;45381;-88
2021/08/04 05:34:03;;;;;;;;;8.75;7.00;;;;;15.16;61.50;101014.00;4839806;29;45490;-88
2021/08/04 05:36:28;;;;;;;;;7.50;6.50;;;;;15.18;61.35;101020.00;4826521;29;45485;-88
2021/08/04 05:38:54;;;;;;;;;6.75;6.00;;;;;15.24;61.07;101024.09;4837274;29;45455;-88
2021/08/04 05:41:20;;;;;;;;;9.75;6.00;;;;;15.26;61.27;101016.97;4832734;29;45364;-88
2021/08/04 05:43:45;;;;;;;;;7.00;7.00;;;;;15.32;61.37;101018.44;4836652;29;45364;-88
2021/08/04 05:46:11;;;;;;;;;7.00;6.75;;;;;15.37;61.40;101024.31;4843574;29;46255;-88
2021/08/04 05:48:36;;;;;;;;;6.00;6.00;;;;;15.40;60.96;101023.28;4845094;29;45244;-88
2021/08/04 05:51:01;;;;;;;;;6.25;6.25;;;;;15.43;61.15;101017.88;4828206;29;45747;-88
2021/08/04 05:53:27;;;;;;;;;9.00;7.75;;;;;15.44;61.23;101020.44;4826700;29;45438;-88
2021/08/04 05:55:52;;;;;;;;;7.25;6.25;;;;;15.52;61.25;101032.28;4830085;29;48147;-88
2021/08/04 05:58:18;;;;;;;;;9.00;8.33;;;;;15.53;61.31;101032.22;4825863;29;45289;-88
2021/08/04 06:00:43;;;;;;;;;6.33;6.33;;;;;15.55;61.29;101025.09;4826060;29;45423;-88
2021/08/04 06:03:08;;;;;;;;;7.50;6.00;;;;;15.62;60.93;101034.38;4826078;29;45304;-88
2021/08/04 06:05:34;;;;;;;;;5.50;5.50;;;;;15.65;60.89;101028.13;4842389;29;46883;-88
2021/08/04 06:07:59;;;;;;;;;8.33;6.00;;;;;15.70;61.40;101023.44;4826191;29;45292;-88
2021/08/04 06:10:25;;;;;;;;;14.50;8.75;;;;;15.74;60.75;101027.59;4827703;29;45293;-88
2021/08/04 06:12:50;;;;;;;;;7.67;6.33;;;;;15.80;60.83;101020.34;4840617;29;45327;-88
2021/08/04 06:15:15;;;;;;;;;10.00;8.33;;;;;15.86;60.87;101028.75;4831708;29;46163;-88
2021/08/04 06:17:41;;;;;;;;;8.75;7.75;;;;;15.92;60.94;101024.09;4847223;29;44822;-88
2021/08/04 06:20:07;;;;;;;;;8.25;8.25;;;;;15.98;60.76;101022.00;4861786;29;45367;-88
2021/08/04 06:22:35;;;;;;;;;7.75;7.00;;;;;16.03;60.72;101030.47;4851923;29;45423;-89
2021/08/04 06:25:00;;;;;;;;;7.00;7.00;;;;;16.09;60.79;101031.91;4833330;29;45440;-88
2021/08/04 06:27:28;;;;;;;;;5.50;5.50;;;;;16.19;60.74;101031.44;4837947;29;45457;-88
2021/08/04 06:29:54;;;;;;;;;7.00;7.00;;;;;16.24;60.46;101027.59;4830286;29;45299;-88
2021/08/04 06:32:19;;;;;;;;;9.25;6.00;;;;;16.28;60.11;101028.28;4840495;29;45235;-88
2021/08/04 06:34:45;;;;;;;;;6.25;6.25;;;;;16.30;60.71;101010.66;4842923;29;45401;-88
2021/08/04 06:37:10;;;;;;;;;10.50;8.75;;;;;16.34;60.31;101009.53;4833301;29;45664;-88
2021/08/04 06:39:35;;;;;;;;;9.00;7.25;;;;;16.44;60.45;101017.78;4829136;29;45319;-87
2021/08/04 06:42:03;;;;;;;;;6.25;6.25;;;;;16.49;60.06;101018.38;4837957;29;44865;-88
2021/08/04 06:44:30;;;;;;;;;7.00;7.00;;;;;16.54;59.60;101023.34;4836765;29;45544;-88
2021/08/04 06:46:58;;;;;;;;;7.25;7.25;;;;;16.59;59.51;101015.19;4828798;29;45495;-90
2021/08/04 06:49:23;;;;;;;;;7.00;7.00;;;;;16.67;59.18;101028.75;4829762;29;44897;-88
2021/08/04 06:51:49;;;;;;;;;7.33;6.00;;;;;16.68;59.10;101022.56;4832303;29;45243;-88
2021/08/04 06:54:14;;;;;;;;;8.00;6.00;;;;;16.70;59.05;101012.78;4829023;29;45787;-88
2021/08/04 06:56:40;;;;;;;;;6.25;6.25;;;;;16.79;59.39;101011.41;4830159;29;45636;-89
2021/08/04 06:59:05;;;;;;;;;6.33;6.33;;;;;16.83;59.33;101012.94;4840838;29;45496;-88
2021/08/04 07:01:30;;;;;;;;;6.33;6.33;;;;;16.90;58.90;101010.81;4843542;29;45392;-89
2021/08/04 07:03:56;;;;;;;;;6.50;4.75;;;;;16.93;58.71;101015.88;4865220;29;47235;-89
2021/08/04 07:06:21;;;;;;;;;7.50;5.25;;;;;16.99;58.77;101012.06;4839610;29;45456;-88
2021/08/04 07:08:47;;;;;;;;;6.00;5.33;;;;;17.07;59.33;101021.22;4841072;29;45442;-89
2021/08/04 07:11:12;;;;;;;;;8.67;5.00;;;;;17.18;58.43;101017.94;4841061;29;45296;-88
2021/08/04 07:13:37;;;;;;;;;5.25;5.00;;;;;17.26;58.84;101020.09;4841348;29;46664;-88
2021/08/04 07:16:03;;;;;;;;;5.00;5.00;;;;;17.30;58.58;101013.72;4837116;29;45574;-88
2021/08/04 07:18:29;;;;;;;;;6.00;6.00;;;;;17.38;58.46;101015.91;4835120;29;45388;-88
2021/08/04 07:20:55;;;;;;;;;9.33;6.33;;;;;17.46;58.17;101018.06;4854651;29;45645;-88
2021/08/04 07:23:21;;;;;;;;;5.75;5.75;;;;;17.54;58.72;101021.06;4856061;29;47558;-88
2021/08/04 07:25:46;;;;;;;;;7.00;5.00;;;;;17.61;58.31;101022.41;4835338;29;45334;-88
2021/08/04 07:28:12;;;;;;;;;5.00;5.00;;;;;17.72;57.91;101021.72;4825159;29;45492;-88
2021/08/04 07:30:38;;;;;;;;;8.67;7.33;;;;;17.71;57.58;101008.66;4825425;29;45420;-87
2021/08/04 07:33:03;;;;;;;;;5.67;5.33;;;;;17.79;58.03;101021.34;4824857;29;45486;-88
2021/08/04 07:35:29;;;;;;;;;7.67;6.33;;;;;17.87;58.09;101019.91;4824745;29;45251;-88
2021/08/04 07:37:55;;;;;;;;;6.00;5.33;;;;;17.97;58.19;101012.28;4849453;29;45246;-87
2021/08/04 07:40:20;;;;;;;;;5.67;5.67;;;;;18.03;57.71;101006.66;4841602;29;46212;-88
2021/08/04 07:42:47;;;;;;;;;6.00;6.00;;;;;18.11;57.25;101013.25;4841361;29;47188;-88
2021/08/04 07:45:13;;;;;;;;;4.00;4.00;;;;;18.14;56.83;101013.03;4843261;29;45375;-87
2021/08/04 07:47:39;;;;;;;;;8.25;6.75;;;;;18.20;56.91;101012.66;4838891;29;45522;-87
2021/08/04 07:50:05;;;;;;;;;5.00;4.00;;;;;18.25;56.86;101007.97;4838214;29;45446;-88
2021/08/04 07:52:31;;;;;;;;;4.33;4.33;;;;;18.28;57.04;101005.09;4842906;29;45818;-87
2021/08/04 07:54:56;;;;;;;;;4.33;4.33;;;;;18.39;56.88;101014.09;4835227;29;45410;-88
2021/08/04 07:57:22;;;;;;;;;5.00;3.67;;;;;18.45;57.03;101008.44;4829032;29;45412;-88
2021/08/04 07:59:47;;;;;;;;;7.67;5.00;;;;;18.50;56.66;101014.25;4840285;29;45462;-88
2021/08/04 08:02:12;;;;;;;;;4.00;4.00;;;;;18.59;56.91;101007.53;4824677;29;45642;-88
2021/08/04 08:04:38;;;;;;;;;4.67;4.33;;;;;18.70;56.70;101012.94;4824608;29;45404;-88
2021/08/04 08:07:03;;;;;;;;;5.00;4.00;;;;;18.76;56.18;101002.94;4824316;29;45471;-88
2021/08/04 08:09:29;;;;;;;;;4.00;4.00;;;;;18.85;56.18;101004.97;4824782;29;45297;-88
2021/08/04 08:11:57;;;;;;;;;4.33;4.00;;;;;18.94;55.69;101011.41;4825103;29;45571;-88
2021/08/04 08:14:23;;;;;;;;;6.00;6.00;;;;;18.98;55.66;101012.88;4824537;29;45385;-88
2021/08/04 08:16:48;;;;;;;;;5.67;5.00;;;;;19.01;55.46;101009.19;4824422;29;45494;-88
2021/08/04 08:19:14;;;;;;;;;8.25;5.00;;;;;19.07;54.89;101006.19;4825302;29;45465;-87
2021/08/04 08:21:49;;;;;;;;;7.00;4.00;;;;;19.16;55.08;101013.47;4841624;29;45922;-88
2021/08/04 08:24:14;;;;;;;;;6.00;4.00;;;;;19.21;55.42;101002.63;4840442;29;45551;-87
2021/08/04 08:26:46;;;;;;;;;6.00;6.00;;;;;19.26;54.45;100997.88;4831219;29;45549;-89
2021/08/04 08:29:11;;;;;;;;;6.67;6.00;;;;;19.28;54.40;100989.81;4835438;29;45470;-88
2021/08/04 08:31:37;;;;;;;;;8.00;6.00;;;;;19.28;53.87;100995.97;4830590;29;45383;-89
2021/08/04 08:34:06;;;;;;;;;6.00;4.67;;;;;19.29;54.48;100996.78;4835844;29;45465;-88
2021/08/04 08:36:34;;;;;;;;;6.33;4.33;;;;;19.35;53.91;101002.50;4830976;29;45317;-88
2021/08/04 08:39:00;;;;;;;;;4.00;4.00;;;;;19.39;54.29;100997.00;4846259;29;45553;-88
2021/08/04 08:41:26;;;;;;;;;7.33;4.33;;;;;19.41;54.05;100997.75;4828284;29;46209;-88
2021/08/04 08:43:53;;;;;;;;;5.00;5.00;;;;;19.45;54.11;100996.59;4843061;29;45632;-89
2021/08/04 08:46:20;;;;;;;;;7.00;5.67;;;;;19.50;54.22;101003.22;4825927;29;45358;-88
2021/08/04 08:48:47;;;;;;;;;6.33;5.00;;;;;19.58;54.30;101002.69;4834273;29;45512;-89
2021/08/04 08:51:16;;;;;;;;;4.00;4.00;;;;;19.67;54.27;100997.72;4843598;29;47220;-87
2021/08/04 08:53:41;;;;;;;;;5.67;5.67;;;;;19.76;54.31;100997.03;4845551;29;45358;-88
2021/08/04 08:56:07;;;;;;;;;3.33;3.33;;;;;19.86;53.12;101002.53;4844271;29;45426;-89
2021/08/04 08:58:33;;;;;;;;;6.00;4.00;;;;;19.91;52.68;101003.06;4845994;29;45464;-88
2021/08/04 09:00:58;;;;;;;;;2.67;2.67;;;;;19.96;52.12;100998.31;4843412;29;46185;-89
2021/08/04 09:03:23;;;;;;;;;3.33;3.33;;;;;20.03;51.74;100993.41;4843917;29;45881;-88
2021/08/04 09:05:54;;;;;;;;;6.00;5.33;;;;;20.09;51.41;100992.16;4844230;29;45799;-89
2021/08/04 09:08:30;;;;;;;;;3.00;3.00;;;;;20.17;51.82;100992.41;4860145;29;45341;-89
2021/08/04 09:10:57;;;;;;;;;4.00;4.00;;;;;20.27;51.66;100995.25;4845389;29;45649;-88
2021/08/04 09:13:35;;;;;;;;;5.00;3.00;;;;;20.37;51.59;100998.06;4842531;29;45498;-88
2021/08/04 09:16:05;;;;;;;;;3.00;3.00;;;;;20.42;51.21;100999.38;4844313;29;45256;-89
2021/08/04 09:18:42;;;;;;;;;6.00;5.67;;;;;20.50;50.94;101004.09;4859878;29;45478;-88
2021/08/04 09:21:07;;;;;;;;;4.00;4.00;;;;;20.60;51.41;101012.19;4844004;29;47398;-89
2021/08/04 09:23:41;;;;;;;;;3.00;3.00;;;;;20.64;50.36;101002.25;4850777;29;45450;-89
2021/08/04 09:26:15;;;;;;;;;3.00;3.00;;;;;20.69;51.05;101003.59;4825607;29;45525;-89
2021/08/04 09:28:59;;;;;;;;;3.33;3.00;;;;;20.76;49.67;101003.13;4826949;29;45480;-89
2021/08/04 09:31:48;;;;;;;;;6.67;5.67;;;;;20.76;50.27;100989.91;4825056;29;48169;-89
2021/08/04 09:34:27;;;;;;;;;3.33;3.00;;;;;20.85;50.62;100994.53;4832663;29;45028;-88
2021/08/04 09:37:08;;;;;;;;;4.33;4.33;;;;;21.02;51.37;100989.75;4839677;29;45572;-89
2021/08/04 09:39:38;;;;;;;;;3.00;3.00;;;;;21.18;50.28;100990.28;4837603;29;45566;-89
2021/08/04 09:42:05;;;;;;;;;5.00;5.00;;;;;21.31;50.36;100982.22;4831139;29;45429;-88
2021/08/04 09:44:31;;;;;;;;;5.00;5.00;;;;;21.47;50.09;100992.44;4831803;29;45630;-88
2021/08/04 09:47:10;;;;;;;;;4.00;4.00;;;;;21.66;49.54;100990.97;4843126;29;45308;-89
2021/08/04 09:49:36;;;;;;;;;4.00;4.00;;;;;21.74;48.67;100985.09;4820847;29;45456;-89
2021/08/04 09:52:10;;;;;;;;;4.33;4.33;;;;;21.84;48.28;100987.88;4842974;29;48366;-89
2021/08/04 09:54:43;;;;;;;;;4.67;3.00;;;;;21.89;48.69;100970.63;4843017;29;45530;-89
2021/08/04 09:57:10;;;;;;;;;5.00;3.67;;;;;22.00;48.70;100972.41;4826367;29;45419;-88
2021/08/04 09:59:36;;;;;;;;;3.67;2.33;;;;;22.07;48.46;100975.41;4830476;29;45597;-89
2021/08/04 10:02:02;;;;;;;;;4.67;4.00;;;;;22.14;47.74;100971.28;4826089;29;45532;-88
2021/08/04 10:04:29;;;;;;;;;4.00;4.00;;;;;22.18;47.63;100974.56;4826092;29;45473;-88
2021/08/04 10:07:08;;;;;;;;;5.67;4.00;;;;;22.21;47.57;100970.81;4829369;29;45537;-88
2021/08/04 10:09:35;;;;;;;;;3.67;3.00;;;;;22.26;47.85;100972.09;4834734;29;45301;-88
2021/08/04 10:12:02;;;;;;;;;5.00;4.00;;;;;22.30;47.87;100970.03;4844527;29;45306;-88
2021/08/04 10:14:27;;;;;;;;;3.67;3.67;;;;;22.39;47.85;100965.78;4841202;29;45685;-89
2021/08/04 10:16:53;;;;;;;;;4.33;3.67;;;;;22.39;48.01;100965.78;4836931;29;44770;-91
2021/08/04 10:19:19;;;;;;;;;3.33;2.67;;;;;22.40;48.23;100960.34;4827524;29;45499;-88
2021/08/04 10:21:51;;;;;;;;;4.33;4.33;;;;;22.45;48.20;100957.31;4826169;29;45454;-88
2021/08/04 10:24:17;;;;;;;;;4.00;4.00;;;;;22.51;48.29;100956.81;4824231;29;45414;-88
2021/08/04 10:26:43;;;;;;;;;3.67;3.33;;;;;22.58;47.06;100948.38;4836905;29;45350;-88
2021/08/04 10:29:10;;;;;;;;;3.33;3.33;;;;;22.64;47.71;100951.34;4835990;29;45209;-88
2021/08/04 10:31:37;;;;;;;;;2.00;2.00;;;;;22.71;46.91;100951.66;4839997;29;46303;-89
2021/08/04 10:34:04;;;;;;;;;5.00;3.00;;;;;22.78;46.94;100957.31;4831794;29;45384;-88
2021/08/04 10:36:33;;;;;;;;;5.00;5.00;;;;;22.85;46.65;100949.66;4828956;29;45403;-88
2021/08/04 10:39:02;;;;;;;;;3.67;3.67;;;;;22.93;46.66;100950.69;4856666;29;45396;-89
2021/08/04 10:41:29;;;;;;;;;3.00;3.00;;;;;23.00;46.48;100944.88;4838506;29;46579;-88
2021/08/04 10:44:00;;;;;;;;;3.67;3.67;;;;;23.08;46.55;100955.66;4804330;29;45900;-88
2021/08/04 10:46:31;;;;;;;;;2.33;2.33;;;;;23.16;46.42;100947.88;4814514;29;44988;-88
2021/08/04 10:49:09;;;;;;;;;1.67;1.67;;;;;23.22;45.61;100954.44;4824105;29;45472;-89
2021/08/04 10:51:36;;;;;;;;;3.00;2.00;;;;;23.27;45.75;100949.59;4823370;29;45418;-88
2021/08/04 10:54:02;;;;;;;;;2.33;2.33;;;;;23.34;45.39;100960.56;4831102;29;45590;-89
2021/08/04 10:56:34;;;;;;;;;3.00;3.00;;;;;23.35;45.04;100954.25;4826586;29;45548;-88
2021/08/04 10:59:09;;;;;;;;;2.33;2.33;;;;;23.33;45.17;100951.72;4829829;29;45764;-88
2021/08/04 11:01:35;;;;;;;;;2.00;2.00;;;;;23.32;45.84;100959.81;4838155;29;45732;-89
2021/08/04 11:04:02;;;;;;;;;2.33;2.33;;;;;23.29;45.75;100949.44;4837091;29;45523;-88
2021/08/04 11:06:28;;;;;;;;;3.33;3.33;;;;;23.20;45.27;100951.09;4825228;29;45493;-88
2021/08/04 11:09:11;;;;;;;;;5.00;4.00;;;;;23.17;45.58;100949.56;4823689;29;45380;-88
2021/08/04 11:12:00;;;;;;;;;4.33;3.33;;;;;23.12;45.71;100953.56;4823415;29;46562;-88
2021/08/04 11:14:48;;;;;;;;;4.00;3.00;;;;;23.03;45.91;100952.53;4825273;29;45513;-88
2021/08/04 11:17:26;;;;;;;;;3.00;3.00;;;;;22.91;46.01;100955.28;4837354;29;45357;-88
2021/08/04 11:20:08;;;;;;;;;3.00;3.00;;;;;22.80;46.32;100961.50;4827250;29;45481;-88
2021/08/04 11:22:39;;;;;;;;;3.00;2.33;;;;;22.67;46.98;100951.09;4841087;29;45698;-89
2021/08/04 11:25:09;;;;;;;;;4.00;4.00;;;;;22.55;46.02;100963.56;4840915;29;45508;-89